Time;durP1;ratioP1;P1;durP2;ratioP2;P2;SDS_P1;SDS_P2;PMS_P1;PMS_P2;Temp;Humidity;BMP_temperature;BMP_pressure;BME280_temperature;BME280_humidity;BME280_pressure;Samples;Min_cycle;Max_cycle;Signal;HPM_P1;HPM_P2
2022/04/12 00:01:53;;;;;;;8.48;4.65;;;;;;;;;;5033973;28;20054;-67
2022/04/12 00:04:19;;;;;;;7.93;5.03;;;;;;;;;;5034680;28;20045;-67
2022/04/12 00:06:46;;;;;;;9.57;5.53;;;;;;;;;;5034020;28;20056;-67
2022/04/12 00:09:13;;;;;;;6.82;4.82;;;;;;;;;;5034063;28;20076;-67
2022/04/12 00:11:42;;;;;;;6.22;5.30;;;;;;;;;;5034254;28;20057;-67
2022/04/12 00:14:08;;;;;;;5.13;4.50;;;;;;;;;;5033963;28;20116;-67
2022/04/12 00:16:35;;;;;;;8.30;5.32;;;;;;;;;;5034010;28;20095;-68
2022/04/12 00:19:02;;;;;;;6.03;4.60;;;;;;;;;;5032552;28;20041;-67
2022/04/12 00:21:36;;;;;;;7.68;4.82;;;;;;;;;;5033864;28;20051;-67
2022/04/12 00:24:06;;;;;;;6.80;4.93;;;;;;;;;;5033807;28;20060;-68
2022/04/12 00:26:33;;;;;;;6.03;4.43;;;;;;;;;;5033985;28;20071;-68
2022/04/12 00:29:00;;;;;;;5.57;4.18;;;;;;;;;;5033582;28;20056;-68
2022/04/12 00:31:29;;;;;;;7.85;4.13;;;;;;;;;;5030644;28;20057;-68
2022/04/12 00:33:56;;;;;;;6.50;4.40;;;;;;;;;;5031508;28;20054;-67
2022/04/12 00:36:23;;;;;;;6.82;4.05;;;;;;;;;;5031953;28;20049;-67
2022/04/12 00:38:49;;;;;;;10.32;6.18;;;;;;;;;;5033034;28;20057;-67
2022/04/12 00:41:16;;;;;;;5.82;4.22;;;;;;;;;;5033368;28;20496;-67
2022/04/12 00:43:43;;;;;;;7.13;4.80;;;;;;;;;;5033448;28;20332;-67
2022/04/12 00:46:10;;;;;;;6.15;4.05;;;;;;;;;;5033270;28;20045;-68
2022/04/12 00:48:37;;;;;;;6.88;4.55;;;;;;;;;;5033376;28;20088;-67
2022/04/12 00:51:04;;;;;;;7.18;4.40;;;;;;;;;;5033006;28;20118;-67
2022/04/12 00:53:31;;;;;;;8.60;4.40;;;;;;;;;;5032154;28;20458;-67
2022/04/12 00:55:58;;;;;;;5.95;4.40;;;;;;;;;;5033245;28;20534;-68
2022/04/12 00:58:25;;;;;;;7.15;4.18;;;;;;;;;;5033122;28;20056;-68
2022/04/12 01:00:52;;;;;;;5.32;4.20;;;;;;;;;;5015154;28;20075;-67
2022/04/12 01:03:18;;;;;;;9.52;4.40;;;;;;;;;;5033303;28;20050;-67
2022/04/12 01:05:45;;;;;;;6.47;4.20;;;;;;;;;;5033204;28;20128;-67
2022/04/12 01:08:12;;;;;;;6.30;4.38;;;;;;;;;;5033001;28;20057;-67
2022/04/12 01:10:39;;;;;;;5.82;4.43;;;;;;;;;;5031587;28;20045;-67
2022/04/12 01:13:06;;;;;;;7.45;4.88;;;;;;;;;;5031213;28;20065;-67
2022/04/12 01:15:32;;;;;;;6.18;4.50;;;;;;;;;;5033153;28;20049;-67
2022/04/12 01:17:59;;;;;;;6.20;4.43;;;;;;;;;;5033143;28;20053;-67
2022/04/12 01:20:30;;;;;;;8.25;4.60;;;;;;;;;;5032945;28;20050;-67
2022/04/12 01:23:15;;;;;;;5.00;3.92;;;;;;;;;;5032519;28;20136;-67
2022/04/12 01:25:42;;;;;;;5.38;4.38;;;;;;;;;;5032694;28;20045;-67
2022/04/12 01:28:09;;;;;;;8.13;4.05;;;;;;;;;;5032423;28;20061;-67
2022/04/12 01:30:36;;;;;;;6.28;4.38;;;;;;;;;;5032422;28;20064;-67
2022/04/12 01:33:04;;;;;;;7.20;4.32;;;;;;;;;;5032222;28;20049;-67
2022/04/12 01:35:31;;;;;;;6.55;4.13;;;;;;;;;;5032575;28;20058;-67
2022/04/12 01:37:57;;;;;;;6.15;4.70;;;;;;;;;;5032166;28;20061;-67
2022/04/12 01:40:24;;;;;;;6.28;4.75;;;;;;;;;;5032189;28;20377;-67
2022/04/12 01:42:52;;;;;;;4.68;4.05;;;;;;;;;;5032221;28;20053;-67
2022/04/12 01:45:21;;;;;;;6.75;4.32;;;;;;;;;;5032444;28;20109;-67
2022/04/12 01:47:47;;;;;;;7.47;4.35;;;;;;;;;;5032324;28;20084;-67
2022/04/12 01:50:14;;;;;;;7.10;4.57;;;;;;;;;;5030708;28;20485;-67
2022/04/12 01:52:41;;;;;;;6.25;4.97;;;;;;;;;;5031792;28;20140;-67
2022/04/12 01:55:08;;;;;;;7.50;4.50;;;;;;;;;;5032554;28;20100;-67
2022/04/12 01:57:35;;;;;;;5.22;4.10;;;;;;;;;;5031127;28;20057;-67
2022/04/12 02:00:01;;;;;;;6.40;4.50;;;;;;;;;;5032078;28;20093;-67
2022/04/12 02:02:28;;;;;;;6.70;4.30;;;;;;;;;;5031862;28;20068;-67
2022/04/12 02:04:55;;;;;;;6.25;4.40;;;;;;;;;;5031934;28;20140;-66
2022/04/12 02:07:22;;;;;;;5.13;4.32;;;;;;;;;;5031921;28;20053;-67
2022/04/12 02:09:48;;;;;;;6.35;4.15;;;;;;;;;;5032066;28;20451;-67
2022/04/12 02:12:15;;;;;;;9.18;4.70;;;;;;;;;;5031613;28;20046;-67
2022/04/12 02:14:41;;;;;;;6.82;4.30;;;;;;;;;;5032006;28;20075;-67
2022/04/12 02:17:08;;;;;;;6.60;4.63;;;;;;;;;;5032007;28;20053;-67
2022/04/12 02:19:35;;;;;;;5.45;4.20;;;;;;;;;;5031814;28;20484;-67
2022/04/12 02:22:01;;;;;;;7.03;4.65;;;;;;;;;;5031255;28;20436;-68
2022/04/12 02:24:28;;;;;;;8.15;4.57;;;;;;;;;;5031820;28;20504;-67
2022/04/12 02:26:55;;;;;;;4.93;4.18;;;;;;;;;;5031912;28;20049;-67
2022/04/12 02:29:21;;;;;;;7.05;4.40;;;;;;;;;;5031556;28;20049;-67
2022/04/12 02:31:48;;;;;;;6.28;4.43;;;;;;;;;;5031630;28;20057;-67
2022/04/12 02:34:15;;;;;;;6.32;4.75;;;;;;;;;;5032089;28;20053;-67
2022/04/12 02:36:43;;;;;;;6.45;4.40;;;;;;;;;;5031462;28;20049;-66
2022/04/12 02:39:09;;;;;;;5.53;3.90;;;;;;;;;;5031737;28;20053;-67
2022/04/12 02:41:36;;;;;;;6.05;4.28;;;;;;;;;;5032518;28;20049;-68
2022/04/12 02:44:03;;;;;;;5.72;4.50;;;;;;;;;;5035514;28;20053;-67
2022/04/12 02:46:30;;;;;;;6.55;4.47;;;;;;;;;;5035306;28;20057;-67
2022/04/12 02:48:56;;;;;;;8.85;4.45;;;;;;;;;;5035425;28;20050;-67
2022/04/12 02:51:23;;;;;;;6.47;4.30;;;;;;;;;;5035184;28;20039;-67
2022/04/12 02:53:50;;;;;;;5.65;4.22;;;;;;;;;;5035047;28;20045;-67
2022/04/12 02:56:16;;;;;;;5.85;4.20;;;;;;;;;;5035339;28;20459;-68
2022/04/12 02:58:43;;;;;;;6.05;4.47;;;;;;;;;;5035224;28;20053;-67
2022/04/12 03:01:09;;;;;;;8.43;4.45;;;;;;;;;;5035153;28;20042;-67
2022/04/12 03:03:37;;;;;;;6.00;4.15;;;;;;;;;;5035440;28;20064;-67
2022/04/12 03:06:03;;;;;;;6.28;4.57;;;;;;;;;;5035127;28;20495;-68
2022/04/12 03:08:30;;;;;;;5.95;4.40;;;;;;;;;;5035208;28;20045;-67
2022/04/12 03:10:56;;;;;;;5.50;4.15;;;;;;;;;;5034936;28;20046;-67
2022/04/12 03:13:23;;;;;;;6.47;4.75;;;;;;;;;;5034908;28;20045;-67
2022/04/12 03:15:50;;;;;;;7.78;4.72;;;;;;;;;;5032323;28;20421;-67
2022/04/12 03:18:17;;;;;;;7.40;4.38;;;;;;;;;;5034738;28;20046;-67
2022/04/12 03:20:45;;;;;;;6.20;4.03;;;;;;;;;;5034931;28;20045;-67
2022/04/12 03:23:11;;;;;;;5.75;4.00;;;;;;;;;;5031093;28;20045;-67
2022/04/12 03:25:39;;;;;;;8.20;4.00;;;;;;;;;;5034844;28;20061;-67
2022/04/12 03:28:06;;;;;;;5.38;4.10;;;;;;;;;;5034758;28;20050;-67
2022/04/12 03:30:33;;;;;;;6.68;3.65;;;;;;;;;;5034821;28;20049;-67
2022/04/12 03:32:59;;;;;;;6.35;4.30;;;;;;;;;;5034790;28;20401;-68
2022/04/12 03:35:26;;;;;;;7.78;4.35;;;;;;;;;;5034869;28;20057;-67
2022/04/12 03:37:53;;;;;;;4.55;3.63;;;;;;;;;;5034773;28;20504;-67
2022/04/12 03:40:21;;;;;;;5.93;3.88;;;;;;;;;;5034763;28;20076;-67
2022/04/12 03:42:48;;;;;;;6.10;4.18;;;;;;;;;;5034391;28;20413;-67
2022/04/12 03:45:14;;;;;;;4.32;3.92;;;;;;;;;;5034471;28;20053;-67
2022/04/12 03:47:41;;;;;;;8.00;4.40;;;;;;;;;;5034514;28;20057;-67
2022/04/12 03:50:09;;;;;;;6.63;5.70;;;;;;;;;;5034419;28;20053;-67
2022/04/12 03:52:35;;;;;;;8.02;6.20;;;;;;;;;;5034213;28;20136;-66
2022/04/12 03:55:04;;;;;;;6.00;4.40;;;;;;;;;;5034401;28;20057;-68
2022/04/12 03:57:32;;;;;;;6.75;4.40;;;;;;;;;;5033152;28;20056;-67
2022/04/12 03:59:59;;;;;;;6.32;4.20;;;;;;;;;;5034152;28;20142;-67
2022/04/12 04:02:26;;;;;;;6.63;4.35;;;;;;;;;;5034114;28;20304;-67
2022/04/12 04:04:53;;;;;;;8.25;4.25;;;;;;;;;;5034403;28;20140;-67
2022/04/12 04:07:19;;;;;;;5.32;3.97;;;;;;;;;;5034112;28;20056;-67
2022/04/12 04:09:46;;;;;;;7.07;4.60;;;;;;;;;;5034622;28;20305;-67
2022/04/12 04:12:12;;;;;;;7.25;4.32;;;;;;;;;;5033525;28;20520;-67
2022/04/12 04:14:42;;;;;;;5.72;4.20;;;;;;;;;;5034001;28;20046;-67
2022/04/12 04:17:08;;;;;;;5.53;4.03;;;;;;;;;;5033977;28;20073;-67
2022/04/12 04:19:35;;;;;;;5.32;3.72;;;;;;;;;;5034082;28;20053;-67
2022/04/12 04:22:02;;;;;;;5.22;3.92;;;;;;;;;;5033592;28;20056;-67
2022/04/12 04:24:34;;;;;;;6.28;4.20;;;;;;;;;;5033339;28;20049;-67
2022/04/12 04:27:05;;;;;;;5.50;4.30;;;;;;;;;;5034217;28;20060;-67
2022/04/12 04:29:35;;;;;;;7.50;4.10;;;;;;;;;;5033749;28;20053;-66
2022/04/12 04:32:02;;;;;;;6.30;3.88;;;;;;;;;;5033587;28;20416;-67
2022/04/12 04:34:29;;;;;;;4.90;4.40;;;;;;;;;;5033453;28;20136;-67
2022/04/12 04:36:56;;;;;;;12.98;4.68;;;;;;;;;;5033648;28;20068;-67
2022/04/12 04:39:23;;;;;;;11.02;4.80;;;;;;;;;;5033475;28;20523;-66
2022/04/12 04:41:49;;;;;;;7.05;4.20;;;;;;;;;;5033335;28;20050;-67
2022/04/12 04:44:16;;;;;;;6.20;4.28;;;;;;;;;;5033720;28;20049;-67
2022/04/12 04:46:43;;;;;;;9.40;4.80;;;;;;;;;;5033372;28;20052;-66
2022/04/12 04:49:10;;;;;;;6.78;4.43;;;;;;;;;;5033447;28;20111;-67
2022/04/12 04:51:41;;;;;;;6.35;5.07;;;;;;;;;;5033001;28;20049;-66
2022/04/12 04:54:07;;;;;;;5.95;4.50;;;;;;;;;;5033082;28;20132;-67
2022/04/12 04:56:34;;;;;;;8.48;5.43;;;;;;;;;;5033496;28;20211;-67
2022/04/12 04:59:01;;;;;;;10.25;5.05;;;;;;;;;;5033166;28;20060;-66
2022/04/12 05:01:27;;;;;;;8.90;4.57;;;;;;;;;;5032878;28;20053;-67
2022/04/12 05:03:54;;;;;;;4.78;4.25;;;;;;;;;;5033056;28;20508;-67
2022/04/12 05:06:21;;;;;;;6.05;3.95;;;;;;;;;;5031621;28;20053;-67
2022/04/12 05:08:48;;;;;;;6.05;3.90;;;;;;;;;;5033253;28;20061;-67
2022/04/12 05:11:14;;;;;;;6.15;4.15;;;;;;;;;;5032886;28;20080;-66
2022/04/12 05:13:41;;;;;;;5.60;4.10;;;;;;;;;;5035140;28;20058;-67
2022/04/12 05:16:08;;;;;;;6.35;4.45;;;;;;;;;;5044795;28;20237;-67
2022/04/12 05:18:34;;;;;;;5.65;4.20;;;;;;;;;;5033263;28;20053;-67
2022/04/12 05:21:01;;;;;;;4.50;3.83;;;;;;;;;;5033752;28;20496;-67
2022/04/12 05:23:28;;;;;;;6.25;3.83;;;;;;;;;;5037164;23;20050;-66
2022/04/12 05:25:55;;;;;;;9.75;4.45;;;;;;;;;;4993561;28;20050;-66
2022/04/12 05:28:22;;;;;;;7.63;4.53;;;;;;;;;;4993411;28;20054;-66
2022/04/12 05:30:49;;;;;;;8.60;4.40;;;;;;;;;;4993259;28;20046;-66
2022/04/12 05:33:15;;;;;;;5.07;4.25;;;;;;;;;;4993073;28;20078;-66
2022/04/12 05:35:42;;;;;;;6.45;3.80;;;;;;;;;;4993117;28;20061;-66
2022/04/12 05:38:09;;;;;;;7.47;4.00;;;;;;;;;;4993302;28;20456;-66
2022/04/12 05:40:35;;;;;;;8.32;4.75;;;;;;;;;;4993089;28;20057;-67
2022/04/12 05:43:02;;;;;;;8.98;4.45;;;;;;;;;;4992707;28;20528;-67
2022/04/12 05:45:29;;;;;;;6.53;4.40;;;;;;;;;;4993182;28;20406;-66
2022/04/12 05:47:56;;;;;;;6.63;4.70;;;;;;;;;;4992870;28;20057;-68
2022/04/12 05:50:24;;;;;;;7.85;4.53;;;;;;;;;;4992848;28;20046;-67
2022/04/12 05:52:51;;;;;;;9.60;4.28;;;;;;;;;;4992466;28;20061;-67
2022/04/12 05:55:19;;;;;;;8.02;4.22;;;;;;;;;;4993094;28;20081;-68
2022/04/12 05:58:00;;;;;;;7.18;4.55;;;;;;;;;;4992757;28;20046;-68
2022/04/12 06:00:28;;;;;;;9.15;4.18;;;;;;;;;;4992880;28;20050;-67
2022/04/12 06:02:55;;;;;;;7.93;4.70;;;;;;;;;;4992172;28;20100;-66
2022/04/12 06:05:24;;;;;;;8.82;5.07;;;;;;;;;;4992605;28;20050;-67
2022/04/12 06:07:51;;;;;;;8.70;5.43;;;;;;;;;;4992640;28;20065;-66
2022/04/12 06:10:18;;;;;;;10.80;6.85;;;;;;;;;;4989596;28;20046;-66
2022/04/12 06:12:45;;;;;;;8.57;5.65;;;;;;;;;;4990151;28;20047;-67
2022/04/12 06:15:12;;;;;;;12.55;6.60;;;;;;;;;;4990244;28;20504;-66
2022/04/12 06:17:39;;;;;;;7.10;5.68;;;;;;;;;;4989596;28;20061;-66
2022/04/12 06:20:14;;;;;;;10.23;5.75;;;;;;;;;;4990349;28;20054;-66
2022/04/12 06:22:41;;;;;;;10.38;6.07;;;;;;;;;;4989643;28;20061;-66
2022/04/12 06:25:10;;;;;;;13.25;6.18;;;;;;;;;;4990358;28;20054;-65
2022/04/12 06:27:38;;;;;;;9.52;6.57;;;;;;;;;;4990456;28;20054;-66
2022/04/12 06:30:06;;;;;;;8.48;6.40;;;;;;;;;;4990328;28;20059;-66
2022/04/12 06:32:33;;;;;;;10.23;6.18;;;;;;;;;;4989995;28;20058;-66
2022/04/12 06:35:01;;;;;;;10.35;6.15;;;;;;;;;;4990030;28;20410;-66
2022/04/12 06:37:28;;;;;;;11.70;6.82;;;;;;;;;;4989257;28;20266;-66
2022/04/12 06:39:58;;;;;;;13.20;7.43;;;;;;;;;;4989831;28;20058;-66
2022/04/12 06:42:25;;;;;;;10.90;7.13;;;;;;;;;;4989909;28;20338;-66
2022/04/12 06:44:52;;;;;;;10.73;5.97;;;;;;;;;;4990771;28;20054;-66
2022/04/12 06:47:18;;;;;;;5.80;5.15;;;;;;;;;;4990221;28;20100;-67
2022/04/12 06:49:46;;;;;;;7.25;5.78;;;;;;;;;;4989812;28;20112;-66
2022/04/12 06:52:13;;;;;;;8.98;5.80;;;;;;;;;;4989845;28;20058;-67
2022/04/12 06:54:40;;;;;;;6.25;5.00;;;;;;;;;;4990364;28;20050;-66
2022/04/12 06:57:07;;;;;;;9.48;5.80;;;;;;;;;;4990088;28;20551;-66
2022/04/12 06:59:34;;;;;;;9.68;6.45;;;;;;;;;;4990033;28;20058;-65
2022/04/12 07:02:01;;;;;;;11.73;5.68;;;;;;;;;;4989460;28;20050;-65
2022/04/12 07:04:28;;;;;;;7.65;4.85;;;;;;;;;;4989946;28;20057;-66
2022/04/12 07:06:56;;;;;;;6.47;4.40;;;;;;;;;;4989931;28;20529;-65
2022/04/12 07:09:27;;;;;;;8.10;4.32;;;;;;;;;;4990316;28;20425;-64
2022/04/12 07:11:54;;;;;;;6.50;4.50;;;;;;;;;;4990009;28;20109;-64
2022/04/12 07:14:21;;;;;;;6.50;4.90;;;;;;;;;;4973787;28;20513;-66
2022/04/12 07:16:48;;;;;;;6.68;4.53;;;;;;;;;;4983234;28;20497;-64
2022/04/12 07:19:15;;;;;;;5.32;4.40;;;;;;;;;;4977674;28;20085;-64
2022/04/12 07:21:42;;;;;;;6.22;3.95;;;;;;;;;;4980053;28;20046;-64
2022/04/12 07:24:09;;;;;;;7.15;4.50;;;;;;;;;;4985124;28;20054;-64
2022/04/12 07:26:39;;;;;;;5.88;4.30;;;;;;;;;;4977086;28;20057;-72
2022/04/12 07:29:05;;;;;;;7.03;4.07;;;;;;;;;;4976826;28;20350;-64
2022/04/12 07:31:32;;;;;;;6.43;4.25;;;;;;;;;;4981288;28;20058;-72
2022/04/12 07:34:00;;;;;;;4.88;3.80;;;;;;;;;;4994907;28;20585;-69
2022/04/12 07:36:27;;;;;;;7.28;4.28;;;;;;;;;;4980559;28;20057;-65
2022/04/12 07:38:54;;;;;;;7.10;3.90;;;;;;;;;;4979620;28;20055;-69
2022/04/12 07:41:20;;;;;;;4.88;3.80;;;;;;;;;;4981430;28;20053;-68
2022/04/12 07:43:49;;;;;;;7.18;3.92;;;;;;;;;;4981641;28;20054;-69
2022/04/12 07:46:16;;;;;;;5.75;3.60;;;;;;;;;;4981768;28;20043;-70
2022/04/12 07:48:47;;;;;;;6.63;3.83;;;;;;;;;;4981533;28;20058;-69
2022/04/12 07:51:14;;;;;;;9.13;3.63;;;;;;;;;;4982394;28;20055;-70
2022/04/12 07:53:41;;;;;;;5.75;3.83;;;;;;;;;;4980646;28;20058;-68
2022/04/12 07:56:07;;;;;;;6.85;3.58;;;;;;;;;;4980145;28;20046;-72
2022/04/12 07:58:34;;;;;;;12.15;4.40;;;;;;;;;;4979869;28;20051;-68
2022/04/12 08:01:01;;;;;;;6.35;3.95;;;;;;;;;;4978902;28;20054;-71
2022/04/12 08:03:27;;;;;;;4.13;3.72;;;;;;;;;;4980483;28;20058;-70
2022/04/12 08:05:54;;;;;;;5.75;4.15;;;;;;;;;;4979654;28;20051;-73
2022/04/12 08:08:21;;;;;;;5.85;4.78;;;;;;;;;;4980890;28;20054;-73
2022/04/12 08:10:48;;;;;;;9.48;5.88;;;;;;;;;;4981815;28;20050;-68
2022/04/12 08:13:14;;;;;;;5.50;4.90;;;;;;;;;;4980505;28;20146;-73
2022/04/12 08:15:42;;;;;;;7.97;5.05;;;;;;;;;;4983271;28;20062;-71
2022/04/12 08:18:08;;;;;;;12.60;4.75;;;;;;;;;;4990144;28;20051;-72
2022/04/12 08:20:35;;;;;;;5.55;5.00;;;;;;;;;;4982313;28;20062;-70
2022/04/12 08:23:02;;;;;;;8.52;5.32;;;;;;;;;;4982919;28;20409;-72
2022/04/12 08:25:29;;;;;;;9.82;4.65;;;;;;;;;;4996983;28;20086;-73
2022/04/12 08:27:56;;;;;;;7.20;4.78;;;;;;;;;;4982344;28;20065;-70
2022/04/12 08:30:23;;;;;;;6.20;4.63;;;;;;;;;;4983923;28;20046;-76
2022/04/12 08:32:50;;;;;;;7.93;4.57;;;;;;;;;;4961762;28;20062;-73
2022/04/12 08:35:16;;;;;;;4.18;3.78;;;;;;;;;;4982281;28;20126;-68
2022/04/12 08:37:44;;;;;;;6.57;4.45;;;;;;;;;;4979620;28;20051;-69
2022/04/12 08:40:11;;;;;;;7.05;4.32;;;;;;;;;;4977050;28;20071;-72
2022/04/12 08:42:38;;;;;;;6.40;4.30;;;;;;;;;;4976884;28;20137;-72
2022/04/12 08:45:08;;;;;;;5.10;4.57;;;;;;;;;;4964413;28;20050;-67
2022/04/12 08:47:35;;;;;;;4.68;3.70;;;;;;;;;;4978550;28;20051;-72
2022/04/12 08:50:05;;;;;;;4.80;3.72;;;;;;;;;;4980112;28;20084;-72
2022/04/12 08:52:32;;;;;;;5.88;3.50;;;;;;;;;;4977933;28;20081;-74
2022/04/12 08:54:59;;;;;;;4.50;3.30;;;;;;;;;;4985629;28;20078;-70
2022/04/12 08:57:25;;;;;;;4.65;3.47;;;;;;;;;;4979606;28;20370;-71
2022/04/12 08:59:52;;;;;;;5.72;3.88;;;;;;;;;;4983411;28;20052;-69
2022/04/12 09:02:19;;;;;;;5.18;4.00;;;;;;;;;;4978655;28;20097;-70
2022/04/12 09:04:45;;;;;;;5.22;3.70;;;;;;;;;;4981329;28;20639;-69
2022/04/12 09:07:13;;;;;;;6.47;3.85;;;;;;;;;;4980615;28;20049;-67
2022/04/12 09:09:42;;;;;;;4.65;3.58;;;;;;;;;;4981153;28;20081;-67
2022/04/12 09:12:10;;;;;;;7.32;3.72;;;;;;;;;;4952740;28;20057;-66
2022/04/12 09:14:36;;;;;;;6.63;2.95;;;;;;;;;;4958831;28;20055;-67
2022/04/12 09:17:08;;;;;;;7.70;3.67;;;;;;;;;;4961936;28;20054;-68
2022/04/12 09:19:51;;;;;;;7.30;3.17;;;;;;;;;;4959590;28;20147;-66
2022/04/12 09:22:21;;;;;;;5.47;3.75;;;;;;;;;;4958071;28;20301;-66
2022/04/12 09:24:49;;;;;;;4.68;3.05;;;;;;;;;;4962031;28;20055;-66
2022/04/12 09:27:17;;;;;;;6.97;3.25;;;;;;;;;;4958921;28;20059;-66
2022/04/12 09:29:49;;;;;;;7.07;3.10;;;;;;;;;;4964989;28;20061;-65
2022/04/12 09:32:22;;;;;;;5.20;3.15;;;;;;;;;;4962344;28;20050;-66
2022/04/12 09:34:50;;;;;;;4.18;3.22;;;;;;;;;;4958248;28;20047;-66
2022/04/12 09:37:17;;;;;;;6.47;2.90;;;;;;;;;;4961195;28;20051;-65
2022/04/12 09:39:59;;;;;;;5.72;2.90;;;;;;;;;;4962203;28;20059;-66
2022/04/12 09:42:46;;;;;;;4.85;2.38;;;;;;;;;;4965484;28;20047;-66
2022/04/12 09:45:27;;;;;;;3.35;2.38;;;;;;;;;;4963320;28;20105;-65
2022/04/12 09:47:58;;;;;;;4.38;2.53;;;;;;;;;;4964673;28;20510;-66
2022/04/12 09:50:44;;;;;;;2.97;2.10;;;;;;;;;;4961205;28;20494;-66
2022/04/12 09:53:11;;;;;;;5.43;2.40;;;;;;;;;;4962351;28;20054;-66
2022/04/12 09:55:43;;;;;;;4.63;2.60;;;;;;;;;;4964461;28;20138;-66
2022/04/12 09:58:14;;;;;;;;;;;;;;;;;;4959872;28;20110;-65
2022/04/12 10:00:42;;;;;;;4.82;2.20;;;;;;;;;;4963239;28;20020;-66
2022/04/12 10:03:13;;;;;;;2.25;1.83;;;;;;;;;;4960738;28;20125;-66
2022/04/12 10:05:41;;;;;;;2.50;1.88;;;;;;;;;;4960150;28;20054;-65
2022/04/12 10:08:14;;;;;;;4.93;2.70;;;;;;;;;;4960785;28;20043;-66
2022/04/12 10:10:44;;;;;;;1.90;1.60;;;;;;;;;;4964178;28;20051;-66
2022/04/12 10:13:13;;;;;;;3.08;2.03;;;;;;;;;;4964088;28;20043;-66
2022/04/12 10:15:40;;;;;;;7.13;2.13;;;;;;;;;;4962452;28;20102;-66
2022/04/12 10:18:07;;;;;;;3.10;2.25;;;;;;;;;;4961257;28;20047;-66
2022/04/12 10:20:33;;;;;;;3.80;2.15;;;;;;;;;;4964390;28;20493;-66
2022/04/12 10:23:00;;;;;;;4.43;2.22;;;;;;;;;;4961011;28;20046;-66
2022/04/12 10:25:27;;;;;;;3.10;1.77;;;;;;;;;;4961990;28;20058;-66
2022/04/12 10:27:58;;;;;;;3.70;1.83;;;;;;;;;;4957653;28;20051;-66
2022/04/12 10:30:27;;;;;;;2.70;1.90;;;;;;;;;;4961932;28;20057;-66
2022/04/12 10:33:05;;;;;;;5.25;2.40;;;;;;;;;;4958922;28;20047;-66
2022/04/12 10:35:44;;;;;;;3.50;1.83;;;;;;;;;;4962215;28;20055;-66
2022/04/12 10:38:15;;;;;;;4.03;1.92;;;;;;;;;;4965756;28;20499;-66
2022/04/12 10:40:44;;;;;;;;;;;;;;;;;;4962785;28;20070;-66
2022/04/12 10:43:12;;;;;;;2.13;1.20;;;;;;;;;;4960809;28;19922;-66
2022/04/12 10:45:46;;;;;;;2.78;1.70;;;;;;;;;;4959799;28;20498;-65
2022/04/12 10:48:23;;;;;;;2.22;1.30;;;;;;;;;;4959677;28;20047;-65
2022/04/12 10:50:51;;;;;;;2.45;1.48;;;;;;;;;;4960735;28;20058;-66
2022/04/12 10:53:36;;;;;;;4.68;1.70;;;;;;;;;;4958991;28;20049;-66
2022/04/12 10:56:11;;;;;;;3.95;1.58;;;;;;;;;;4958460;28;20104;-66
2022/04/12 10:58:38;;;;;;;1.30;1.10;;;;;;;;;;4961186;28;20057;-69
2022/04/12 11:01:09;;;;;;;6.45;1.50;;;;;;;;;;4958585;28;20062;-67
2022/04/12 11:03:43;;;;;;;1.90;1.35;;;;;;;;;;4961974;28;20042;-66
2022/04/12 11:06:13;;;;;;;3.00;1.25;;;;;;;;;;4965189;28;20075;-66
2022/04/12 11:08:49;;;;;;;3.22;0.98;;;;;;;;;;4963111;28;20051;-66
2022/04/12 11:11:19;;;;;;;3.20;1.38;;;;;;;;;;4965104;28;20054;-66
2022/04/12 11:13:46;;;;;;;1.67;1.33;;;;;;;;;;4963811;28;20058;-66
2022/04/12 11:16:13;;;;;;;2.25;1.70;;;;;;;;;;4961584;28;20051;-67
2022/04/12 11:18:51;;;;;;;3.33;1.20;;;;;;;;;;4962357;28;20057;-67
2022/04/12 11:21:19;;;;;;;2.58;1.60;;;;;;;;;;4963736;28;20047;-67
2022/04/12 11:24:12;;;;;;;4.68;1.58;;;;;;;;;;4969042;28;20051;-67
2022/04/12 11:26:50;;;;;;;3.20;1.75;;;;;;;;;;4965955;28;20113;-68
2022/04/12 11:29:21;;;;;;;2.78;1.38;;;;;;;;;;4964952;28;20050;-66
2022/04/12 11:31:50;;;;;;;5.55;1.65;;;;;;;;;;4966591;28;20039;-66
2022/04/12 11:34:18;;;;;;;2.50;1.08;;;;;;;;;;4966456;28;20055;-67
2022/04/12 11:36:52;;;;;;;3.47;1.20;;;;;;;;;;4971463;28;20062;-66
2022/04/12 11:39:23;;;;;;;4.10;1.20;;;;;;;;;;4970129;28;20055;-66
2022/04/12 11:41:50;;;;;;;2.58;1.00;;;;;;;;;;4966663;28;20415;-66
2022/04/12 11:44:20;;;;;;;2.35;1.20;;;;;;;;;;4962262;28;20514;-66
2022/04/12 11:46:53;;;;;;;1.55;1.02;;;;;;;;;;4961080;28;20047;-67
2022/04/12 11:49:20;;;;;;;2.13;1.10;;;;;;;;;;4960788;28;20047;-66
2022/04/12 11:51:50;;;;;;;3.95;1.30;;;;;;;;;;4961990;28;20052;-67
2022/04/12 11:54:24;;;;;;;1.25;1.15;;;;;;;;;;4984496;28;20074;-66
2022/04/12 11:57:10;;;;;;;1.67;1.20;;;;;;;;;;4972146;28;20055;-67
2022/04/12 11:59:51;;;;;;;1.58;1.00;;;;;;;;;;4970069;28;20098;-67
2022/04/12 12:02:20;;;;;;;1.52;1.00;;;;;;;;;;4969364;28;20104;-67
2022/04/12 12:04:56;;;;;;;1.70;0.90;;;;;;;;;;4970718;28;20055;-67
2022/04/12 12:07:24;;;;;;;2.65;1.30;;;;;;;;;;4970207;28;20062;-66
2022/04/12 12:09:54;;;;;;;1.67;0.90;;;;;;;;;;4963667;28;20076;-65
2022/04/12 12:12:31;;;;;;;1.73;0.85;;;;;;;;;;4964528;28;20466;-65
2022/04/12 12:14:59;;;;;;;2.15;0.90;;;;;;;;;;4966452;28;20490;-65
2022/04/12 12:17:27;;;;;;;2.97;0.90;;;;;;;;;;4963736;28;20143;-65
2022/04/12 12:19:53;;;;;;;1.02;0.70;;;;;;;;;;4961351;28;20043;-65
2022/04/12 12:22:22;;;;;;;1.98;0.90;;;;;;;;;;4962631;28;20478;-65
2022/04/12 12:24:54;;;;;;;2.83;0.80;;;;;;;;;;4959221;28;20051;-66
2022/04/12 12:27:36;;;;;;;2.15;1.00;;;;;;;;;;4961868;28;20171;-66
2022/04/12 12:30:10;;;;;;;1.83;0.75;;;;;;;;;;4961333;28;20082;-66
2022/04/12 12:32:38;;;;;;;2.88;1.00;;;;;;;;;;4963417;28;20073;-66
2022/04/12 12:35:07;;;;;;;2.97;1.00;;;;;;;;;;4962811;28;20053;-66
2022/04/12 12:37:34;;;;;;;2.42;1.00;;;;;;;;;;4960967;28;20059;-66
2022/04/12 12:40:02;;;;;;;1.60;0.95;;;;;;;;;;4967959;28;20051;-66
2022/04/12 12:42:37;;;;;;;1.38;0.93;;;;;;;;;;4960718;28;20054;-66
2022/04/12 12:45:18;;;;;;;2.30;0.60;;;;;;;;;;4966608;28;20502;-66
2022/04/12 12:47:47;;;;;;;0.73;0.70;;;;;;;;;;4966385;28;20062;-66
2022/04/12 12:50:15;;;;;;;0.90;0.75;;;;;;;;;;4960763;28;20055;-66
2022/04/12 12:52:45;;;;;;;3.03;1.00;;;;;;;;;;4962781;28;20050;-66
2022/04/12 12:55:21;;;;;;;1.67;1.10;;;;;;;;;;4960723;28;20058;-66
2022/04/12 12:57:48;;;;;;;2.65;0.90;;;;;;;;;;4963714;28;20055;-66
2022/04/12 13:00:17;;;;;;;1.70;0.80;;;;;;;;;;4962030;28;20047;-65
2022/04/12 13:02:44;;;;;;;3.47;1.02;;;;;;;;;;4959528;28;20073;-66
2022/04/12 13:05:13;;;;;;;1.35;0.75;;;;;;;;;;4960048;28;20043;-66
2022/04/12 13:07:40;;;;;;;1.23;0.80;;;;;;;;;;4963913;28;20514;-66
2022/04/12 13:10:17;;;;;;;2.00;1.00;;;;;;;;;;4962351;28;20051;-66
2022/04/12 13:12:45;;;;;;;0.98;0.73;;;;;;;;;;4961152;28;20062;-66
2022/04/12 13:15:13;;;;;;;0.70;0.70;;;;;;;;;;4960892;28;20062;-66
2022/04/12 13:17:40;;;;;;;2.70;1.00;;;;;;;;;;4961611;28;20070;-66
2022/04/12 13:20:09;;;;;;;1.77;0.90;;;;;;;;;;4962098;28;20051;-66
2022/04/12 13:22:37;;;;;;;3.05;0.85;;;;;;;;;;4963847;28;20114;-66
2022/04/12 13:25:04;;;;;;;1.30;0.70;;;;;;;;;;4959659;28;20047;-66
2022/04/12 13:27:31;;;;;;;0.80;0.80;;;;;;;;;;4961875;28;20051;-66
2022/04/12 13:29:58;;;;;;;2.72;0.70;;;;;;;;;;4960152;28;20498;-66
2022/04/12 13:32:24;;;;;;;1.45;0.80;;;;;;;;;;4960935;28;20055;-66
2022/04/12 13:34:52;;;;;;;1.27;0.70;;;;;;;;;;4962115;28;20134;-66
2022/04/12 13:37:19;;;;;;;1.52;0.75;;;;;;;;;;4963088;28;20052;-66
2022/04/12 13:39:49;;;;;;;1.83;1.05;;;;;;;;;;4960432;28;20089;-66
2022/04/12 13:42:15;;;;;;;1.38;0.60;;;;;;;;;;4962124;28;20502;-66
2022/04/12 13:44:42;;;;;;;1.63;0.90;;;;;;;;;;4960362;28;20047;-66
2022/04/12 13:47:09;;;;;;;1.85;0.90;;;;;;;;;;4959686;28;20047;-66
2022/04/12 13:49:35;;;;;;;1.48;0.70;;;;;;;;;;4964401;28;20094;-66
2022/04/12 13:52:02;;;;;;;0.88;0.70;;;;;;;;;;4959475;28;20051;-66
2022/04/12 13:54:29;;;;;;;2.08;0.70;;;;;;;;;;4963452;28;20046;-66
2022/04/12 13:56:56;;;;;;;5.25;0.70;;;;;;;;;;4982102;28;20094;-66
2022/04/12 13:59:23;;;;;;;2.60;0.70;;;;;;;;;;4980442;28;20058;-63
2022/04/12 14:01:52;;;;;;;6.22;1.20;;;;;;;;;;4987823;28;20046;-66
2022/04/12 14:04:20;;;;;;;1.55;0.68;;;;;;;;;;4987340;28;20483;-66
2022/04/12 14:06:47;;;;;;;2.90;1.10;;;;;;;;;;4980142;28;20054;-66
2022/04/12 14:09:14;;;;;;;1.92;0.70;;;;;;;;;;4983912;28;20054;-66
2022/04/12 14:11:44;;;;;;;1.70;0.75;;;;;;;;;;4980466;28;20059;-66
2022/04/12 14:14:14;;;;;;;3.55;0.70;;;;;;;;;;4981853;28;20105;-66
2022/04/12 14:16:42;;;;;;;2.00;0.90;;;;;;;;;;4982336;28;20050;-65
2022/04/12 14:19:11;;;;;;;5.00;0.98;;;;;;;;;;4979087;28;20050;-65
2022/04/12 14:21:37;;;;;;;3.88;0.60;;;;;;;;;;4980004;28;20564;-65
2022/04/12 14:24:04;;;;;;;0.70;0.70;;;;;;;;;;4977979;28;20054;-66
2022/04/12 14:26:33;;;;;;;1.27;0.60;;;;;;;;;;4980015;28;20501;-65
2022/04/12 14:29:04;;;;;;;1.40;0.60;;;;;;;;;;4980985;28;20112;-66
2022/04/12 14:31:31;;;;;;;3.55;0.60;;;;;;;;;;4984121;28;20405;-65
2022/04/12 14:33:58;;;;;;;1.27;0.88;;;;;;;;;;4983140;28;20421;-66
2022/04/12 14:36:25;;;;;;;1.13;0.65;;;;;;;;;;4985377;28;20070;-65
2022/04/12 14:38:51;;;;;;;0.85;0.65;;;;;;;;;;4978169;28;20050;-65
2022/04/12 14:41:18;;;;;;;4.57;0.77;;;;;;;;;;4978217;28;20046;-65
2022/04/12 14:43:45;;;;;;;1.80;0.80;;;;;;;;;;4979713;28;20101;-65
2022/04/12 14:46:13;;;;;;;2.38;0.70;;;;;;;;;;4975019;28;20042;-65
2022/04/12 14:48:41;;;;;;;2.35;0.80;;;;;;;;;;4978829;28;20043;-66
2022/04/12 14:51:07;;;;;;;2.33;0.80;;;;;;;;;;4976556;28;20461;-65